Hopwood, Pennsylvania
Current Conditions -  °F | °C
As of 12:43 PM on Wednesday 26 Nov 2014 (Local Time) from KMGW Reporting Station
Light Snow Light Snow  
Wind Chill: 33°   Ceiling: 400
Heat Index: 33°   Visibility: 0.5mi
Dew Point: 30°   Wind: 0mph
Humidity: 89%   Direction: NA
Pressure: 30"   Gusts: NA
Location:  39.88°N, 79.7°W
Report Text: KMGW 261743Z 00000KT 1/2SM -SN FG BKN004 OVC014 01/M01 A3000 RMK AO2 P0004 T00061011
Loading
Personal Weather Stations






























Interactive Weather Map New forecast layout! Learn more

10-Day Weather Forecast

Advertisements
Track Severe Weather on mobile